sensor_id;sensor_type;location;lat;lon;timestamp;temperature;humidity
22471;DHT22;11402;51.374;6.594;2022-11-12T00:00:47;6.90;99.90
22471;DHT22;11402;51.374;6.594;2022-11-12T00:03:13;7.00;99.90
22471;DHT22;11402;51.374;6.594;2022-11-12T00:05:38;7.00;99.90
22471;DHT22;11402;51.374;6.594;2022-11-12T00:08:04;6.90;99.90
22471;DHT22;11402;51.374;6.594;2022-11-12T00:10:30;6.90;99.90
22471;DHT22;11402;51.374;6.594;2022-11-12T00:12:56;7.00;99.90
22471;DHT22;11402;51.374;6.594;2022-11-12T00:15:22;7.00;99.90
22471;DHT22;11402;51.374;6.594;2022-11-12T00:17:48;7.00;99.90
22471;DHT22;11402;51.374;6.594;2022-11-12T00:20:13;6.90;99.90
22471;DHT22;11402;51.374;6.594;2022-11-12T00:22:39;6.90;99.90
22471;DHT22;11402;51.374;6.594;2022-11-12T00:25:05;7.00;99.90
22471;DHT22;11402;51.374;6.594;2022-11-12T00:27:31;7.00;99.90
22471;DHT22;11402;51.374;6.594;2022-11-12T00:29:57;7.00;99.90
22471;DHT22;11402;51.374;6.594;2022-11-12T00:32:23;6.90;99.90
22471;DHT22;11402;51.374;6.594;2022-11-12T00:34:48;6.80;99.90
22471;DHT22;11402;51.374;6.594;2022-11-12T00:37:14;6.90;99.90
22471;DHT22;11402;51.374;6.594;2022-11-12T00:39:41;6.70;99.90
22471;DHT22;11402;51.374;6.594;2022-11-12T00:42:07;6.80;99.90
22471;DHT22;11402;51.374;6.594;2022-11-12T00:44:32;6.80;99.90
22471;DHT22;11402;51.374;6.594;2022-11-12T00:46:58;6.70;99.90
22471;DHT22;11402;51.374;6.594;2022-11-12T00:49:23;6.70;99.90
22471;DHT22;11402;51.374;6.594;2022-11-12T00:51:49;6.80;99.90
22471;DHT22;11402;51.374;6.594;2022-11-12T00:54:15;6.80;99.90
22471;DHT22;11402;51.374;6.594;2022-11-12T00:56:40;6.80;99.90
22471;DHT22;11402;51.374;6.594;2022-11-12T00:59:06;6.80;99.90
22471;DHT22;11402;51.374;6.594;2022-11-12T01:01:32;6.80;99.90
22471;DHT22;11402;51.374;6.594;2022-11-12T01:03:58;6.80;99.90
22471;DHT22;11402;51.374;6.594;2022-11-12T01:06:24;6.80;99.90
22471;DHT22;11402;51.374;6.594;2022-11-12T01:08:50;6.90;99.90
22471;DHT22;11402;51.374;6.594;2022-11-12T01:11:21;6.80;99.90
22471;DHT22;11402;51.374;6.594;2022-11-12T01:13:54;6.80;99.90
22471;DHT22;11402;51.374;6.594;2022-11-12T01:16:22;6.70;99.90
22471;DHT22;11402;51.374;6.594;2022-11-12T01:18:56;6.70;99.90
22471;DHT22;11402;51.374;6.594;2022-11-12T01:21:28;6.70;99.90
22471;DHT22;11402;51.374;6.594;2022-11-12T01:23:56;6.70;99.90
22471;DHT22;11402;51.374;6.594;2022-11-12T01:26:22;6.60;99.90
22471;DHT22;11402;51.374;6.594;2022-11-12T01:28:48;6.50;99.90
22471;DHT22;11402;51.374;6.594;2022-11-12T01:33:42;6.30;99.90
22471;DHT22;11402;51.374;6.594;2022-11-12T01:36:08;6.40;99.90
22471;DHT22;11402;51.374;6.594;2022-11-12T01:38:35;6.40;99.90
22471;DHT22;11402;51.374;6.594;2022-11-12T01:41:01;6.20;99.90
22471;DHT22;11402;51.374;6.594;2022-11-12T01:43:27;6.30;99.90
22471;DHT22;11402;51.374;6.594;2022-11-12T01:45:53;6.40;99.90
22471;DHT22;11402;51.374;6.594;2022-11-12T01:48:37;6.40;99.90
22471;DHT22;11402;51.374;6.594;2022-11-12T01:51:04;6.20;99.90
22471;DHT22;11402;51.374;6.594;2022-11-12T01:53:39;6.20;99.90
22471;DHT22;11402;51.374;6.594;2022-11-12T01:56:06;6.20;99.90
22471;DHT22;11402;51.374;6.594;2022-11-12T01:58:33;6.20;99.90
22471;DHT22;11402;51.374;6.594;2022-11-12T02:01:01;6.20;99.90
22471;DHT22;11402;51.374;6.594;2022-11-12T02:03:27;6.20;99.90
22471;DHT22;11402;51.374;6.594;2022-11-12T02:05:58;6.10;99.90
22471;DHT22;11402;51.374;6.594;2022-11-12T02:08:27;6.10;99.90
22471;DHT22;11402;51.374;6.594;2022-11-12T02:10:53;6.10;99.90
22471;DHT22;11402;51.374;6.594;2022-11-12T02:13:19;6.10;99.90
22471;DHT22;11402;51.374;6.594;2022-11-12T02:16:04;6.00;99.90
22471;DHT22;11402;51.374;6.594;2022-11-12T02:18:30;6.10;99.90
22471;DHT22;11402;51.374;6.594;2022-11-12T02:20:58;6.10;99.90
22471;DHT22;11402;51.374;6.594;2022-11-12T02:23:27;6.10;99.90
22471;DHT22;11402;51.374;6.594;2022-11-12T02:25:52;6.10;99.90
22471;DHT22;11402;51.374;6.594;2022-11-12T02:28:18;6.10;99.90
22471;DHT22;11402;51.374;6.594;2022-11-12T02:30:48;6.00;99.90
22471;DHT22;11402;51.374;6.594;2022-11-12T02:33:14;6.00;99.90
22471;DHT22;11402;51.374;6.594;2022-11-12T02:35:40;6.10;99.90
22471;DHT22;11402;51.374;6.594;2022-11-12T02:38:06;6.00;99.90
22471;DHT22;11402;51.374;6.594;2022-11-12T02:40:32;6.10;99.90
22471;DHT22;11402;51.374;6.594;2022-11-12T02:42:58;6.10;99.90
22471;DHT22;11402;51.374;6.594;2022-11-12T02:45:25;6.20;99.90
22471;DHT22;11402;51.374;6.594;2022-11-12T02:47:50;6.10;99.90
22471;DHT22;11402;51.374;6.594;2022-11-12T02:50:17;6.10;99.90
22471;DHT22;11402;51.374;6.594;2022-11-12T02:52:42;6.20;99.90
22471;DHT22;11402;51.374;6.594;2022-11-12T02:55:10;6.10;99.90
22471;DHT22;11402;51.374;6.594;2022-11-12T02:57:37;6.10;99.90
22471;DHT22;11402;51.374;6.594;2022-11-12T03:00:08;6.10;99.90
22471;DHT22;11402;51.374;6.594;2022-11-12T03:02:35;6.00;99.90
22471;DHT22;11402;51.374;6.594;2022-11-12T03:05:10;6.00;99.90
22471;DHT22;11402;51.374;6.594;2022-11-12T03:07:36;6.00;99.90
22471;DHT22;11402;51.374;6.594;2022-11-12T03:10:03;6.00;99.90
22471;DHT22;11402;51.374;6.594;2022-11-12T03:12:33;6.00;99.90
22471;DHT22;11402;51.374;6.594;2022-11-12T03:14:58;6.00;99.90
22471;DHT22;11402;51.374;6.594;2022-11-12T03:17:24;6.10;99.90
22471;DHT22;11402;51.374;6.594;2022-11-12T03:19:49;6.10;99.90
22471;DHT22;11402;51.374;6.594;2022-11-12T03:22:15;6.20;99.90
22471;DHT22;11402;51.374;6.594;2022-11-12T03:24:41;6.10;99.90
22471;DHT22;11402;51.374;6.594;2022-11-12T03:27:06;6.10;99.90
22471;DHT22;11402;51.374;6.594;2022-11-12T03:29:32;6.10;99.90
22471;DHT22;11402;51.374;6.594;2022-11-12T03:31:57;6.10;99.90
22471;DHT22;11402;51.374;6.594;2022-11-12T03:34:23;6.20;99.90
22471;DHT22;11402;51.374;6.594;2022-11-12T03:36:48;6.20;99.90
22471;DHT22;11402;51.374;6.594;2022-11-12T03:39:14;6.20;99.90
22471;DHT22;11402;51.374;6.594;2022-11-12T03:41:39;6.20;99.90
22471;DHT22;11402;51.374;6.594;2022-11-12T03:44:05;6.20;99.90
22471;DHT22;11402;51.374;6.594;2022-11-12T03:46:30;6.10;99.90
22471;DHT22;11402;51.374;6.594;2022-11-12T03:48:56;6.20;99.90
22471;DHT22;11402;51.374;6.594;2022-11-12T03:51:23;6.10;99.90
22471;DHT22;11402;51.374;6.594;2022-11-12T03:53:49;6.10;99.90
22471;DHT22;11402;51.374;6.594;2022-11-12T03:56:14;6.20;99.90
22471;DHT22;11402;51.374;6.594;2022-11-12T03:58:40;6.20;99.90
22471;DHT22;11402;51.374;6.594;2022-11-12T04:01:05;6.10;99.90
22471;DHT22;11402;51.374;6.594;2022-11-12T04:03:31;6.20;99.90
22471;DHT22;11402;51.374;6.594;2022-11-12T04:05:56;6.10;99.90
22471;DHT22;11402;51.374;6.594;2022-11-12T04:08:41;6.10;99.90
22471;DHT22;11402;51.374;6.594;2022-11-12T04:11:12;6.10;99.90
22471;DHT22;11402;51.374;6.594;2022-11-12T04:13:42;6.10;99.90
22471;DHT22;11402;51.374;6.594;2022-11-12T04:16:15;6.10;99.90
22471;DHT22;11402;51.374;6.594;2022-11-12T04:19:00;6.10;99.90
22471;DHT22;11402;51.374;6.594;2022-11-12T04:21:47;6.10;99.90
22471;DHT22;11402;51.374;6.594;2022-11-12T04:24:32;6.20;99.90
22471;DHT22;11402;51.374;6.594;2022-11-12T04:29:53;6.10;99.90
22471;DHT22;11402;51.374;6.594;2022-11-12T04:32:49;6.00;99.90
22471;DHT22;11402;51.374;6.594;2022-11-12T04:35:15;6.00;99.90
22471;DHT22;11402;51.374;6.594;2022-11-12T04:37:41;6.10;99.90
22471;DHT22;11402;51.374;6.594;2022-11-12T04:40:13;6.00;99.90
22471;DHT22;11402;51.374;6.594;2022-11-12T04:42:58;6.00;99.90
22471;DHT22;11402;51.374;6.594;2022-11-12T04:45:44;6.00;99.90
22471;DHT22;11402;51.374;6.594;2022-11-12T04:48:09;5.90;99.90
22471;DHT22;11402;51.374;6.594;2022-11-12T04:50:35;5.90;99.90
22471;DHT22;11402;51.374;6.594;2022-11-12T04:53:01;5.90;99.90
22471;DHT22;11402;51.374;6.594;2022-11-12T04:55:27;5.90;99.90
22471;DHT22;11402;51.374;6.594;2022-11-12T04:57:52;5.90;99.90
22471;DHT22;11402;51.374;6.594;2022-11-12T05:00:18;5.80;99.90
22471;DHT22;11402;51.374;6.594;2022-11-12T05:02:44;5.80;99.90
22471;DHT22;11402;51.374;6.594;2022-11-12T05:05:09;5.80;99.90
22471;DHT22;11402;51.374;6.594;2022-11-12T05:07:35;5.70;99.90
22471;DHT22;11402;51.374;6.594;2022-11-12T05:10:00;5.80;99.90
22471;DHT22;11402;51.374;6.594;2022-11-12T05:12:26;5.90;99.90
22471;DHT22;11402;51.374;6.594;2022-11-12T05:14:51;5.80;99.90
22471;DHT22;11402;51.374;6.594;2022-11-12T05:17:17;5.90;99.90
22471;DHT22;11402;51.374;6.594;2022-11-12T05:19:43;5.90;99.90
22471;DHT22;11402;51.374;6.594;2022-11-12T05:22:11;6.10;99.90
22471;DHT22;11402;51.374;6.594;2022-11-12T05:24:41;6.00;99.90
22471;DHT22;11402;51.374;6.594;2022-11-12T05:27:13;6.00;99.90
22471;DHT22;11402;51.374;6.594;2022-11-12T05:29:39;6.00;99.90
22471;DHT22;11402;51.374;6.594;2022-11-12T05:32:05;6.00;99.90
22471;DHT22;11402;51.374;6.594;2022-11-12T05:34:31;6.10;99.90
22471;DHT22;11402;51.374;6.594;2022-11-12T05:36:58;6.10;99.90
22471;DHT22;11402;51.374;6.594;2022-11-12T05:39:23;6.10;99.90
22471;DHT22;11402;51.374;6.594;2022-11-12T05:41:49;6.20;99.90
22471;DHT22;11402;51.374;6.594;2022-11-12T05:44:15;6.20;99.90
22471;DHT22;11402;51.374;6.594;2022-11-12T05:46:41;6.20;99.90
22471;DHT22;11402;51.374;6.594;2022-11-12T05:49:07;6.30;99.90
22471;DHT22;11402;51.374;6.594;2022-11-12T05:51:32;6.20;99.90
22471;DHT22;11402;51.374;6.594;2022-11-12T05:53:58;6.30;99.90
22471;DHT22;11402;51.374;6.594;2022-11-12T05:56:24;6.30;99.90
22471;DHT22;11402;51.374;6.594;2022-11-12T05:58:49;6.20;99.90
22471;DHT22;11402;51.374;6.594;2022-11-12T06:01:15;6.20;99.90
22471;DHT22;11402;51.374;6.594;2022-11-12T06:03:40;6.30;99.90
22471;DHT22;11402;51.374;6.594;2022-11-12T06:06:06;6.30;99.90
22471;DHT22;11402;51.374;6.594;2022-11-12T06:08:32;6.20;99.90
22471;DHT22;11402;51.374;6.594;2022-11-12T06:10:57;6.20;99.90
22471;DHT22;11402;51.374;6.594;2022-11-12T06:13:24;6.20;99.90
22471;DHT22;11402;51.374;6.594;2022-11-12T06:15:51;6.10;99.90
22471;DHT22;11402;51.374;6.594;2022-11-12T06:18:16;6.10;99.90
22471;DHT22;11402;51.374;6.594;2022-11-12T06:20:42;6.10;99.90
22471;DHT22;11402;51.374;6.594;2022-11-12T06:23:08;6.10;99.90
22471;DHT22;11402;51.374;6.594;2022-11-12T06:25:33;6.10;99.90
22471;DHT22;11402;51.374;6.594;2022-11-12T06:27:59;6.10;99.90
22471;DHT22;11402;51.374;6.594;2022-11-12T06:30:24;6.10;99.90
22471;DHT22;11402;51.374;6.594;2022-11-12T06:32:50;6.10;99.90
22471;DHT22;11402;51.374;6.594;2022-11-12T06:35:17;6.20;99.90
22471;DHT22;11402;51.374;6.594;2022-11-12T06:37:47;6.20;99.90
22471;DHT22;11402;51.374;6.594;2022-11-12T06:40:13;6.20;99.90
22471;DHT22;11402;51.374;6.594;2022-11-12T06:42:38;6.20;99.90
22471;DHT22;11402;51.374;6.594;2022-11-12T06:45:04;6.20;99.90
22471;DHT22;11402;51.374;6.594;2022-11-12T06:47:30;6.10;99.90
22471;DHT22;11402;51.374;6.594;2022-11-12T06:49:56;6.10;99.90
22471;DHT22;11402;51.374;6.594;2022-11-12T06:52:21;6.10;99.90
22471;DHT22;11402;51.374;6.594;2022-11-12T06:54:47;6.10;99.90
22471;DHT22;11402;51.374;6.594;2022-11-12T06:57:12;6.10;99.90
22471;DHT22;11402;51.374;6.594;2022-11-12T06:59:38;6.10;99.90
22471;DHT22;11402;51.374;6.594;2022-11-12T07:02:03;6.10;99.90
22471;DHT22;11402;51.374;6.594;2022-11-12T07:04:30;6.10;99.90
22471;DHT22;11402;51.374;6.594;2022-11-12T07:06:55;6.10;99.90
22471;DHT22;11402;51.374;6.594;2022-11-12T07:09:21;6.10;99.90
22471;DHT22;11402;51.374;6.594;2022-11-12T07:11:46;6.10;99.90
22471;DHT22;11402;51.374;6.594;2022-11-12T07:14:12;6.10;99.90
22471;DHT22;11402;51.374;6.594;2022-11-12T07:16:37;6.10;99.90
22471;DHT22;11402;51.374;6.594;2022-11-12T07:19:03;6.20;99.90
22471;DHT22;11402;51.374;6.594;2022-11-12T07:21:28;6.10;99.90
22471;DHT22;11402;51.374;6.594;2022-11-12T07:23:54;6.20;99.90
22471;DHT22;11402;51.374;6.594;2022-11-12T07:26:22;6.30;99.90
22471;DHT22;11402;51.374;6.594;2022-11-12T07:28:49;6.40;99.90
22471;DHT22;11402;51.374;6.594;2022-11-12T07:31:17;6.50;99.90
22471;DHT22;11402;51.374;6.594;2022-11-12T07:33:43;6.60;99.90
22471;DHT22;11402;51.374;6.594;2022-11-12T07:36:12;6.60;99.90
22471;DHT22;11402;51.374;6.594;2022-11-12T07:38:39;6.70;99.90
22471;DHT22;11402;51.374;6.594;2022-11-12T07:41:07;6.80;99.90
22471;DHT22;11402;51.374;6.594;2022-11-12T07:43:35;7.00;99.90
22471;DHT22;11402;51.374;6.594;2022-11-12T07:46:04;7.00;99.90
22471;DHT22;11402;51.374;6.594;2022-11-12T07:48:32;7.10;99.90
22471;DHT22;11402;51.374;6.594;2022-11-12T07:51:05;7.10;99.90
22471;DHT22;11402;51.374;6.594;2022-11-12T07:53:31;7.10;99.90
22471;DHT22;11402;51.374;6.594;2022-11-12T07:55:58;7.20;99.90
22471;DHT22;11402;51.374;6.594;2022-11-12T07:58:25;7.40;99.90
22471;DHT22;11402;51.374;6.594;2022-11-12T08:00:52;7.40;99.90
22471;DHT22;11402;51.374;6.594;2022-11-12T08:03:18;7.40;99.90
22471;DHT22;11402;51.374;6.594;2022-11-12T08:05:44;7.50;99.90
22471;DHT22;11402;51.374;6.594;2022-11-12T08:08:10;7.60;99.90
22471;DHT22;11402;51.374;6.594;2022-11-12T08:10:36;7.60;99.90
22471;DHT22;11402;51.374;6.594;2022-11-12T08:13:02;7.70;99.90
22471;DHT22;11402;51.374;6.594;2022-11-12T08:15:28;7.80;99.90
22471;DHT22;11402;51.374;6.594;2022-11-12T08:17:53;7.90;99.90
22471;DHT22;11402;51.374;6.594;2022-11-12T08:20:19;8.00;99.90
22471;DHT22;11402;51.374;6.594;2022-11-12T08:22:44;8.10;99.90
22471;DHT22;11402;51.374;6.594;2022-11-12T08:25:10;8.10;99.90
22471;DHT22;11402;51.374;6.594;2022-11-12T08:27:35;8.20;99.90
22471;DHT22;11402;51.374;6.594;2022-11-12T08:30:02;8.20;99.90
22471;DHT22;11402;51.374;6.594;2022-11-12T08:32:28;8.30;99.90
22471;DHT22;11402;51.374;6.594;2022-11-12T08:34:53;8.30;99.90
22471;DHT22;11402;51.374;6.594;2022-11-12T08:37:19;8.40;99.90
22471;DHT22;11402;51.374;6.594;2022-11-12T08:39:44;8.40;99.90
22471;DHT22;11402;51.374;6.594;2022-11-12T08:42:10;8.40;99.90
22471;DHT22;11402;51.374;6.594;2022-11-12T08:44:35;8.50;99.90
22471;DHT22;11402;51.374;6.594;2022-11-12T08:47:01;8.60;99.90
22471;DHT22;11402;51.374;6.594;2022-11-12T08:49:27;8.70;99.90
22471;DHT22;11402;51.374;6.594;2022-11-12T08:51:53;8.70;99.90
22471;DHT22;11402;51.374;6.594;2022-11-12T08:54:19;8.80;99.90
22471;DHT22;11402;51.374;6.594;2022-11-12T08:56:45;8.90;99.90
22471;DHT22;11402;51.374;6.594;2022-11-12T08:59:10;8.90;99.90
22471;DHT22;11402;51.374;6.594;2022-11-12T09:01:36;9.00;99.90
22471;DHT22;11402;51.374;6.594;2022-11-12T09:04:01;9.10;99.90
22471;DHT22;11402;51.374;6.594;2022-11-12T09:06:27;9.20;99.90
22471;DHT22;11402;51.374;6.594;2022-11-12T09:08:53;9.20;99.90
22471;DHT22;11402;51.374;6.594;2022-11-12T09:11:18;9.30;99.90
22471;DHT22;11402;51.374;6.594;2022-11-12T09:13:44;9.30;99.90
22471;DHT22;11402;51.374;6.594;2022-11-12T09:16:09;9.40;99.90
22471;DHT22;11402;51.374;6.594;2022-11-12T09:18:35;9.40;99.90
22471;DHT22;11402;51.374;6.594;2022-11-12T09:21:10;9.40;99.90
22471;DHT22;11402;51.374;6.594;2022-11-12T09:23:36;9.50;99.90
22471;DHT22;11402;51.374;6.594;2022-11-12T09:26:03;9.50;99.90
22471;DHT22;11402;51.374;6.594;2022-11-12T09:28:28;9.60;99.90
22471;DHT22;11402;51.374;6.594;2022-11-12T09:30:54;9.60;99.90
22471;DHT22;11402;51.374;6.594;2022-11-12T09:33:26;9.60;99.90
22471;DHT22;11402;51.374;6.594;2022-11-12T09:35:52;9.70;99.90
22471;DHT22;11402;51.374;6.594;2022-11-12T09:38:18;9.70;99.90
22471;DHT22;11402;51.374;6.594;2022-11-12T09:43:33;9.90;99.90
22471;DHT22;11402;51.374;6.594;2022-11-12T09:46:13;9.90;99.90
22471;DHT22;11402;51.374;6.594;2022-11-12T09:48:43;10.00;99.90
22471;DHT22;11402;51.374;6.594;2022-11-12T09:51:35;10.10;99.90
22471;DHT22;11402;51.374;6.594;2022-11-12T09:56:46;10.20;99.90
22471;DHT22;11402;51.374;6.594;2022-11-12T09:59:12;10.30;99.90
22471;DHT22;11402;51.374;6.594;2022-11-12T10:04:38;10.30;99.90
22471;DHT22;11402;51.374;6.594;2022-11-12T10:12:53;10.50;99.90
22471;DHT22;11402;51.374;6.594;2022-11-12T10:20:49;10.60;99.90
22471;DHT22;11402;51.374;6.594;2022-11-12T10:23:25;10.70;99.90
22471;DHT22;11402;51.374;6.594;2022-11-12T10:25:54;10.70;99.90
22471;DHT22;11402;51.374;6.594;2022-11-12T10:28:30;10.80;99.90
22471;DHT22;11402;51.374;6.594;2022-11-12T10:31:09;10.80;99.90
22471;DHT22;11402;51.374;6.594;2022-11-12T10:33:35;10.90;99.90
22471;DHT22;11402;51.374;6.594;2022-11-12T10:36:27;10.90;99.90
22471;DHT22;11402;51.374;6.594;2022-11-12T10:38:54;11.00;99.90
22471;DHT22;11402;51.374;6.594;2022-11-12T10:41:24;11.00;99.90
22471;DHT22;11402;51.374;6.594;2022-11-12T10:44:01;11.00;99.90
22471;DHT22;11402;51.374;6.594;2022-11-12T10:46:37;11.10;99.90
22471;DHT22;11402;51.374;6.594;2022-11-12T10:49:06;11.20;99.90
22471;DHT22;11402;51.374;6.594;2022-11-12T10:51:56;11.20;99.90
22471;DHT22;11402;51.374;6.594;2022-11-12T10:56:51;11.20;99.90
22471;DHT22;11402;51.374;6.594;2022-11-12T10:59:19;11.30;99.90
22471;DHT22;11402;51.374;6.594;2022-11-12T11:01:46;11.40;99.90
22471;DHT22;11402;51.374;6.594;2022-11-12T11:04:30;11.30;99.90
22471;DHT22;11402;51.374;6.594;2022-11-12T11:07:19;11.40;99.90
22471;DHT22;11402;51.374;6.594;2022-11-12T11:09:56;11.50;99.90
22471;DHT22;11402;51.374;6.594;2022-11-12T11:12:30;11.50;99.90
22471;DHT22;11402;51.374;6.594;2022-11-12T11:17:40;11.60;99.90
22471;DHT22;11402;51.374;6.594;2022-11-12T11:20:20;11.60;99.90
22471;DHT22;11402;51.374;6.594;2022-11-12T11:22:53;11.70;99.90
22471;DHT22;11402;51.374;6.594;2022-11-12T11:25:27;11.80;99.90
22471;DHT22;11402;51.374;6.594;2022-11-12T11:27:57;11.80;99.90
22471;DHT22;11402;51.374;6.594;2022-11-12T11:30:25;11.80;99.90
22471;DHT22;11402;51.374;6.594;2022-11-12T11:36:23;11.90;99.90
22471;DHT22;11402;51.374;6.594;2022-11-12T11:39:02;12.00;99.90
22471;DHT22;11402;51.374;6.594;2022-11-12T11:42:21;12.00;99.90
22471;DHT22;11402;51.374;6.594;2022-11-12T11:44:55;12.10;99.90
22471;DHT22;11402;51.374;6.594;2022-11-12T11:47:36;12.10;99.90
22471;DHT22;11402;51.374;6.594;2022-11-12T11:50:22;12.20;99.90
22471;DHT22;11402;51.374;6.594;2022-11-12T11:53:08;12.20;99.90
22471;DHT22;11402;51.374;6.594;2022-11-12T11:55:53;12.30;99.90
22471;DHT22;11402;51.374;6.594;2022-11-12T12:01:20;12.30;99.90
22471;DHT22;11402;51.374;6.594;2022-11-12T12:04:19;12.40;99.90
22471;DHT22;11402;51.374;6.594;2022-11-12T12:09:36;12.50;99.90
22471;DHT22;11402;51.374;6.594;2022-11-12T12:12:23;12.60;99.90
22471;DHT22;11402;51.374;6.594;2022-11-12T12:20:24;12.60;99.90
22471;DHT22;11402;51.374;6.594;2022-11-12T12:22:58;12.60;99.90
22471;DHT22;11402;51.374;6.594;2022-11-12T12:25:29;12.70;99.90
22471;DHT22;11402;51.374;6.594;2022-11-12T12:28:05;12.70;99.90
22471;DHT22;11402;51.374;6.594;2022-11-12T12:30:40;12.70;99.90
22471;DHT22;11402;51.374;6.594;2022-11-12T12:33:27;12.70;99.90
22471;DHT22;11402;51.374;6.594;2022-11-12T12:36:01;12.80;99.90
22471;DHT22;11402;51.374;6.594;2022-11-12T12:38:34;12.80;99.90
22471;DHT22;11402;51.374;6.594;2022-11-12T12:41:24;12.90;99.90
22471;DHT22;11402;51.374;6.594;2022-11-12T12:44:05;13.00;99.90
22471;DHT22;11402;51.374;6.594;2022-11-12T12:46:36;13.10;99.90
22471;DHT22;11402;51.374;6.594;2022-11-12T12:49:04;13.20;99.90
22471;DHT22;11402;51.374;6.594;2022-11-12T12:51:32;13.10;99.90
22471;DHT22;11402;51.374;6.594;2022-11-12T12:53:58;13.10;99.90
22471;DHT22;11402;51.374;6.594;2022-11-12T12:58:56;13.20;99.90
22471;DHT22;11402;51.374;6.594;2022-11-12T13:03:51;13.20;99.90
22471;DHT22;11402;51.374;6.594;2022-11-12T13:08:51;13.30;99.90
22471;DHT22;11402;51.374;6.594;2022-11-12T13:14:43;13.40;99.90
22471;DHT22;11402;51.374;6.594;2022-11-12T13:17:10;13.40;99.90
22471;DHT22;11402;51.374;6.594;2022-11-12T13:37:57;13.40;99.90
22471;DHT22;11402;51.374;6.594;2022-11-12T13:40:34;13.40;99.90
22471;DHT22;11402;51.374;6.594;2022-11-12T13:45:44;13.40;99.90
22471;DHT22;11402;51.374;6.594;2022-11-12T13:48:35;13.40;99.90
22471;DHT22;11402;51.374;6.594;2022-11-12T13:51:09;13.50;99.90
22471;DHT22;11402;51.374;6.594;2022-11-12T13:53:37;13.50;99.90
22471;DHT22;11402;51.374;6.594;2022-11-12T13:56:03;13.40;99.90
22471;DHT22;11402;51.374;6.594;2022-11-12T13:58:33;13.40;99.90
22471;DHT22;11402;51.374;6.594;2022-11-12T14:01:00;13.50;99.90
22471;DHT22;11402;51.374;6.594;2022-11-12T14:03:36;13.50;99.90
22471;DHT22;11402;51.374;6.594;2022-11-12T14:09:37;13.50;99.90
22471;DHT22;11402;51.374;6.594;2022-11-12T14:18:07;13.40;99.90
22471;DHT22;11402;51.374;6.594;2022-11-12T14:20:38;13.30;99.90
22471;DHT22;11402;51.374;6.594;2022-11-12T14:23:11;13.40;99.90
22471;DHT22;11402;51.374;6.594;2022-11-12T14:25:54;13.30;99.90
22471;DHT22;11402;51.374;6.594;2022-11-12T14:28:34;13.30;99.90
22471;DHT22;11402;51.374;6.594;2022-11-12T14:31:01;13.30;99.90
22471;DHT22;11402;51.374;6.594;2022-11-12T14:33:29;13.30;99.90
22471;DHT22;11402;51.374;6.594;2022-11-12T14:36:03;13.30;99.90
22471;DHT22;11402;51.374;6.594;2022-11-12T14:38:45;13.30;99.90
22471;DHT22;11402;51.374;6.594;2022-11-12T14:41:23;13.30;99.90
22471;DHT22;11402;51.374;6.594;2022-11-12T14:43:58;13.30;99.90
22471;DHT22;11402;51.374;6.594;2022-11-12T14:46:52;13.30;99.90
22471;DHT22;11402;51.374;6.594;2022-11-12T14:51:51;13.20;99.90
22471;DHT22;11402;51.374;6.594;2022-11-12T14:54:31;13.20;99.90
22471;DHT22;11402;51.374;6.594;2022-11-12T14:56:59;13.20;99.90
22471;DHT22;11402;51.374;6.594;2022-11-12T14:59:27;13.20;99.90
22471;DHT22;11402;51.374;6.594;2022-11-12T15:02:12;13.20;99.90
22471;DHT22;11402;51.374;6.594;2022-11-12T15:04:43;13.10;99.90
22471;DHT22;11402;51.374;6.594;2022-11-12T15:10:40;13.00;99.90
22471;DHT22;11402;51.374;6.594;2022-11-12T15:13:18;12.90;99.90
22471;DHT22;11402;51.374;6.594;2022-11-12T15:16:03;12.90;99.90
22471;DHT22;11402;51.374;6.594;2022-11-12T15:18:31;12.90;99.90
22471;DHT22;11402;51.374;6.594;2022-11-12T15:21:11;12.90;99.90
22471;DHT22;11402;51.374;6.594;2022-11-12T15:26:44;12.80;99.90
22471;DHT22;11402;51.374;6.594;2022-11-12T15:31:47;12.70;99.90
22471;DHT22;11402;51.374;6.594;2022-11-12T15:34:48;12.70;99.90
22471;DHT22;11402;51.374;6.594;2022-11-12T15:39:56;12.50;99.90
22471;DHT22;11402;51.374;6.594;2022-11-12T15:42:30;12.30;99.90
22471;DHT22;11402;51.374;6.594;2022-11-12T15:45:02;12.30;99.90
22471;DHT22;11402;51.374;6.594;2022-11-12T15:47:28;12.20;99.90
22471;DHT22;11402;51.374;6.594;2022-11-12T15:49:56;12.00;99.90
22471;DHT22;11402;51.374;6.594;2022-11-12T15:52:23;11.80;99.90
22471;DHT22;11402;51.374;6.594;2022-11-12T15:54:48;11.80;99.90
22471;DHT22;11402;51.374;6.594;2022-11-12T15:57:17;11.70;99.90
22471;DHT22;11402;51.374;6.594;2022-11-12T15:59:45;11.60;99.90
22471;DHT22;11402;51.374;6.594;2022-11-12T16:02:13;11.50;99.90
22471;DHT22;11402;51.374;6.594;2022-11-12T16:04:39;11.40;99.90
22471;DHT22;11402;51.374;6.594;2022-11-12T16:07:04;11.40;99.90
22471;DHT22;11402;51.374;6.594;2022-11-12T16:09:32;11.30;99.90
22471;DHT22;11402;51.374;6.594;2022-11-12T16:11:58;11.30;99.90
22471;DHT22;11402;51.374;6.594;2022-11-12T16:14:25;11.20;99.90
22471;DHT22;11402;51.374;6.594;2022-11-12T16:16:51;11.20;99.90
22471;DHT22;11402;51.374;6.594;2022-11-12T16:19:17;11.10;99.90
22471;DHT22;11402;51.374;6.594;2022-11-12T16:21:42;11.00;99.90
22471;DHT22;11402;51.374;6.594;2022-11-12T16:24:08;11.00;99.90
22471;DHT22;11402;51.374;6.594;2022-11-12T16:26:34;10.90;99.90
22471;DHT22;11402;51.374;6.594;2022-11-12T16:29:00;10.70;99.90
22471;DHT22;11402;51.374;6.594;2022-11-12T16:31:26;10.50;99.90
22471;DHT22;11402;51.374;6.594;2022-11-12T16:33:53;10.50;99.90
22471;DHT22;11402;51.374;6.594;2022-11-12T16:36:18;10.50;99.90
22471;DHT22;11402;51.374;6.594;2022-11-12T16:38:45;10.50;99.90
22471;DHT22;11402;51.374;6.594;2022-11-12T16:41:12;10.30;99.90
22471;DHT22;11402;51.374;6.594;2022-11-12T16:43:38;10.20;99.90
22471;DHT22;11402;51.374;6.594;2022-11-12T16:46:24;10.40;99.90
22471;DHT22;11402;51.374;6.594;2022-11-12T16:48:53;10.50;99.90
22471;DHT22;11402;51.374;6.594;2022-11-12T16:51:20;10.40;99.90
22471;DHT22;11402;51.374;6.594;2022-11-12T16:53:46;10.40;99.90
22471;DHT22;11402;51.374;6.594;2022-11-12T16:56:19;10.30;99.90
22471;DHT22;11402;51.374;6.594;2022-11-12T16:58:46;10.30;99.90
22471;DHT22;11402;51.374;6.594;2022-11-12T17:01:27;10.20;99.90
22471;DHT22;11402;51.374;6.594;2022-11-12T17:03:54;10.20;99.90
22471;DHT22;11402;51.374;6.594;2022-11-12T17:06:21;10.00;99.90
22471;DHT22;11402;51.374;6.594;2022-11-12T17:08:47;10.00;99.90
22471;DHT22;11402;51.374;6.594;2022-11-12T17:11:17;9.90;99.90
22471;DHT22;11402;51.374;6.594;2022-11-12T17:13:43;9.90;99.90
22471;DHT22;11402;51.374;6.594;2022-11-12T17:16:08;9.90;99.90
22471;DHT22;11402;51.374;6.594;2022-11-12T17:18:34;9.90;99.90
22471;DHT22;11402;51.374;6.594;2022-11-12T17:21:14;9.90;99.90
22471;DHT22;11402;51.374;6.594;2022-11-12T17:23:41;9.90;99.90
22471;DHT22;11402;51.374;6.594;2022-11-12T17:26:10;9.90;99.90
22471;DHT22;11402;51.374;6.594;2022-11-12T17:28:36;9.90;99.90
22471;DHT22;11402;51.374;6.594;2022-11-12T17:33:42;9.70;99.90
22471;DHT22;11402;51.374;6.594;2022-11-12T17:36:11;9.60;99.90